Time;durP1;ratioP1;P1;durP2;ratioP2;P2;SDS_P1;SDS_P2;PMS_P1;PMS_P2;Temp;Humidity;BMP_temperature;BMP_pressure;BME280_temperature;BME280_humidity;BME280_pressure;Samples;Min_cycle;Max_cycle;Signal;HPM_P1;HPM_P2
2022/11/13 00:01:51;;;;;;;;;122.00;113.33;;;;;9.85;85.16;101878.91;5036208;28;45395;-81
2022/11/13 00:04:16;;;;;;;;;115.25;107.50;;;;;9.92;85.18;101895.91;5054106;28;45494;-82
2022/11/13 00:06:41;;;;;;;;;109.00;103.00;;;;;9.82;85.24;101879.66;5052020;28;45710;-82
2022/11/13 00:09:10;;;;;;;;;108.67;102.00;;;;;9.91;84.90;101888.88;5041900;28;63173;-82
2022/11/13 00:11:35;;;;;;;;;105.75;96.00;;;;;9.78;85.14;101869.78;5054339;28;45463;-81
2022/11/13 00:14:01;;;;;;;;;113.33;105.33;;;;;9.89;84.89;101893.09;5053877;28;46794;-83
2022/11/13 00:16:26;;;;;;;;;117.67;108.67;;;;;9.72;85.11;101872.06;5054518;28;45468;-83
2022/11/13 00:18:51;;;;;;;;;111.67;106.67;;;;;9.75;85.21;101872.25;5035691;28;45317;-82
2022/11/13 00:21:22;;;;;;;;;107.67;101.67;;;;;9.66;85.22;101861.25;5053617;28;57231;-83
2022/11/13 00:23:48;;;;;;;;;108.00;100.50;;;;;9.74;85.43;101870.44;5050758;28;46175;-81
2022/11/13 00:26:22;;;;;;;;;114.25;106.25;;;;;9.61;85.24;101841.72;5033633;28;45688;-81
2022/11/13 00:28:52;;;;;;;;;103.25;94.00;;;;;9.82;85.39;101874.41;5034008;28;45435;-82
2022/11/13 00:31:18;;;;;;;;;113.50;106.50;;;;;9.81;85.14;101871.69;5033882;28;45802;-82
2022/11/13 00:33:43;;;;;;;;;124.33;115.00;;;;;9.80;85.27;101865.53;5032826;28;63118;-81
2022/11/13 00:36:18;;;;;;;;;112.33;103.33;;;;;9.80;85.04;101860.28;5033687;28;45443;-82
2022/11/13 00:38:44;;;;;;;;;113.25;102.50;;;;;9.79;85.18;101862.81;5034043;28;45469;-81
2022/11/13 00:41:09;;;;;;;;;113.75;103.50;;;;;9.79;84.94;101860.19;5034034;28;45403;-82
2022/11/13 00:43:34;;;;;;;;;112.75;100.75;;;;;9.48;84.50;101813.88;5033971;28;45711;-84
2022/11/13 00:46:00;;;;;;;;;106.67;95.67;;;;;9.75;84.91;101858.19;5032680;28;49260;-82
2022/11/13 00:48:25;;;;;;;;;111.67;100.00;;;;;9.71;84.62;101851.91;5034163;28;52126;-81
2022/11/13 00:50:51;;;;;;;;;107.33;95.33;;;;;9.66;84.67;101835.00;5045716;28;45852;-82
2022/11/13 00:53:16;;;;;;;;;104.25;98.25;;;;;9.63;84.76;101829.56;5053657;28;45992;-83
2022/11/13 00:55:45;;;;;;;;;109.33;96.33;;;;;9.68;84.68;101837.69;5053219;28;64725;-82
2022/11/13 00:58:11;;;;;;;;;108.50;98.00;;;;;9.57;84.47;101823.97;5046411;28;53883;-82
2022/11/13 01:00:37;;;;;;;;;104.75;100.00;;;;;9.65;84.52;101842.75;5032173;28;45457;-82
2022/11/13 01:03:03;;;;;;;;;115.50;104.25;;;;;9.63;84.53;101842.69;5033118;28;46451;-82
2022/11/13 01:05:28;;;;;;;;;110.33;102.67;;;;;9.62;84.41;101835.63;5015722;28;45346;-81
2022/11/13 01:07:54;;;;;;;;;105.25;96.50;;;;;9.59;84.44;101824.06;5033118;28;45465;-82
2022/11/13 01:10:21;;;;;;;;;105.00;99.25;;;;;9.57;84.72;101823.97;5052739;28;45382;-83
2022/11/13 01:12:46;;;;;;;;;110.50;104.50;;;;;9.42;84.85;101791.63;5052833;28;45440;-82
2022/11/13 01:15:11;;;;;;;;;97.67;93.33;;;;;9.54;84.92;101813.28;5046152;28;45458;-83
2022/11/13 01:17:37;;;;;;;;;98.00;91.00;;;;;9.48;84.61;101805.09;5033555;28;45555;-81
2022/11/13 01:20:04;;;;;;;;;96.25;91.50;;;;;9.47;84.55;101798.03;5032931;28;45485;-82
2022/11/13 01:22:29;;;;;;;;;93.25;85.50;;;;;9.35;84.90;101781.59;5033671;28;47214;-82
2022/11/13 01:24:55;;;;;;;;;95.33;91.33;;;;;9.51;84.97;101805.28;5032724;28;52421;-83
2022/11/13 01:27:20;;;;;;;;;104.00;96.00;;;;;9.37;84.67;101777.34;5033308;28;45296;-82
2022/11/13 01:29:45;;;;;;;;;106.33;95.33;;;;;9.50;84.55;101800.81;5033160;28;45862;-84
2022/11/13 01:32:10;;;;;;;;;98.00;92.33;;;;;9.43;84.22;101782.94;5032510;28;52587;-82
2022/11/13 01:34:39;;;;;;;;;99.00;94.00;;;;;9.49;84.87;101799.03;5032042;28;66136;-83
2022/11/13 01:37:04;;;;;;;;;101.75;92.50;;;;;9.10;84.42;101726.88;5032745;28;45735;-82
2022/11/13 01:39:30;;;;;;;;;99.75;92.25;;;;;9.45;84.24;101791.78;5033419;28;45493;-82
2022/11/13 01:41:55;;;;;;;;;95.50;91.00;;;;;9.26;84.38;101764.53;5032463;28;46284;-81
2022/11/13 01:44:21;;;;;;;;;96.00;88.33;;;;;9.39;84.20;101789.72;5033019;28;50663;-82
2022/11/13 01:46:51;;;;;;;;;102.00;95.00;;;;;9.36;84.04;101788.66;5032169;28;54740;-81
2022/11/13 01:49:33;;;;;;;;;99.50;94.50;;;;;9.30;84.21;101789.22;5032592;28;45446;-82
2022/11/13 01:52:24;;;;;;;;;99.25;93.25;;;;;9.20;84.09;101774.66;5032600;28;46669;-83
2022/11/13 01:54:53;;;;;;;;;97.75;88.25;;;;;9.29;84.39;101785.69;5032405;28;45756;-82
2022/11/13 01:57:19;;;;;;;;;96.75;86.75;;;;;9.13;84.31;101761.13;5031531;28;45268;-81
2022/11/13 01:59:53;;;;;;;;;93.75;86.00;;;;;9.27;84.02;101791.69;5032795;28;45885;-82
2022/11/13 02:02:19;;;;;;;;;95.25;82.50;;;;;9.20;84.32;101765.91;5032544;28;46868;-82
2022/11/13 02:04:44;;;;;;;;;95.00;88.67;;;;;9.09;84.37;101743.41;5032421;28;45489;-84
2022/11/13 02:07:13;;;;;;;;;90.25;75.75;;;;;9.26;84.15;101774.09;5032388;28;45566;-83
2022/11/13 02:09:41;;;;;;;;;93.25;81.25;;;;;9.25;84.26;101772.31;5045796;28;45434;-83
2022/11/13 02:12:11;;;;;;;;;89.00;78.25;;;;;9.23;83.97;101760.84;5051806;28;45636;-84
2022/11/13 02:14:44;;;;;;;;;88.75;76.25;;;;;9.15;83.83;101749.00;5052837;28;45428;-82
2022/11/13 02:17:14;;;;;;;;;89.25;79.00;;;;;9.20;83.85;101760.66;5052151;28;45368;-84
2022/11/13 02:19:44;;;;;;;;;93.25;83.25;;;;;8.98;83.90;101721.84;5052685;28;45514;-83
2022/11/13 02:22:21;;;;;;;;;94.75;85.50;;;;;9.17;84.21;101756.16;5052257;28;46298;-84
2022/11/13 02:24:47;;;;;;;;;92.00;82.50;;;;;9.17;83.97;101761.41;5051882;28;45541;-84
2022/11/13 02:27:26;;;;;;;;;89.25;77.75;;;;;9.13;83.79;101746.31;5052306;28;45793;-84
2022/11/13 02:29:51;;;;;;;;;91.75;77.00;;;;;9.15;83.86;101764.75;5052183;28;45468;-83
2022/11/13 02:32:17;;;;;;;;;94.67;86.33;;;;;8.99;83.55;101736.75;5051261;28;56360;-82
2022/11/13 02:34:42;;;;;;;;;91.33;82.33;;;;;9.09;83.74;101752.19;5051807;28;58514;-82
2022/11/13 02:37:07;;;;;;;;;94.33;86.67;;;;;9.08;83.88;101758.25;5052081;28;45410;-81
2022/11/13 02:39:33;;;;;;;;;96.50;90.75;;;;;9.09;84.02;101753.91;5052051;28;45556;-81
2022/11/13 02:41:58;;;;;;;;;93.75;85.50;;;;;9.08;84.03;101755.63;5052028;28;46110;-84
2022/11/13 02:44:23;;;;;;;;;95.00;80.33;;;;;9.10;84.72;101755.72;5052630;28;45845;-83
2022/11/13 02:46:49;;;;;;;;;94.00;83.00;;;;;8.97;84.30;101723.56;5051620;28;45470;-82
2022/11/13 02:49:14;;;;;;;;;94.67;82.33;;;;;9.06;84.41;101738.88;5050966;28;55663;-83
2022/11/13 02:51:39;;;;;;;;;92.00;81.33;;;;;9.13;84.27;101741.06;5033435;28;63561;-83
2022/11/13 02:54:05;;;;;;;;;93.00;84.33;;;;;9.14;84.28;101747.19;5051034;28;56530;-81
2022/11/13 02:56:30;;;;;;;;;91.25;81.50;;;;;9.10;84.28;101737.34;5052187;28;45393;-82
2022/11/13 02:58:55;;;;;;;;;90.67;80.33;;;;;8.99;84.03;101721.91;5051677;28;45732;-82
2022/11/13 03:01:21;;;;;;;;;89.67;79.00;;;;;8.88;83.83;101706.41;5051706;28;46283;-83
2022/11/13 03:03:46;;;;;;;;;91.67;79.67;;;;;8.98;84.00;101729.72;5051153;28;45556;-83
2022/11/13 03:06:11;;;;;;;;;90.00;79.00;;;;;9.03;83.94;101743.97;5051042;28;65924;-82
2022/11/13 03:08:37;;;;;;;;;87.00;72.67;;;;;8.96;84.23;101731.31;5051888;28;45661;-84
2022/11/13 03:11:07;;;;;;;;;83.75;66.50;;;;;9.02;84.32;101742.19;5051015;28;46150;-84
2022/11/13 03:13:33;;;;;;;;;81.00;67.25;;;;;8.96;84.27;101728.69;5051813;28;45560;-85
2022/11/13 03:16:14;;;;;;;;;82.00;65.00;;;;;8.89;84.33;101718.69;5051368;28;45533;-85
2022/11/13 03:18:40;;;;;;;;;77.50;60.00;;;;;9.03;84.23;101744.88;5051559;28;45429;-85
2022/11/13 03:21:08;;;;;;;;;80.50;63.25;;;;;8.92;84.37;101726.75;5051372;28;46336;-82
2022/11/13 03:23:34;;;;;;;;;75.00;59.50;;;;;9.08;84.51;101742.53;5051881;28;45789;-83
2022/11/13 03:26:08;;;;;;;;;81.25;63.75;;;;;9.10;84.56;101740.88;5051225;28;45579;-83
2022/11/13 03:28:34;;;;;;;;;79.00;62.25;;;;;9.09;84.16;101732.94;5052225;28;45563;-83
2022/11/13 03:30:59;;;;;;;;;83.75;67.75;;;;;9.07;84.08;101740.72;5050569;28;46397;-84
2022/11/13 03:33:25;;;;;;;;;80.50;64.50;;;;;9.06;83.98;101736.25;5051499;28;45609;-83
2022/11/13 03:35:50;;;;;;;;;79.75;63.50;;;;;9.00;84.11;101728.06;5034916;28;45840;-83
2022/11/13 03:38:15;;;;;;;;;79.75;62.25;;;;;8.85;83.71;101696.63;5029959;28;45661;-83
2022/11/13 03:40:41;;;;;;;;;80.67;63.67;;;;;9.01;84.13;101719.38;5029888;28;46558;-83
2022/11/13 03:43:07;;;;;;;;;78.25;63.00;;;;;9.01;83.96;101714.13;5030980;28;45470;-83
2022/11/13 03:45:33;;;;;;;;;80.25;65.00;;;;;8.95;83.80;101704.19;5031104;28;58589;-83
2022/11/13 03:47:58;;;;;;;;;80.00;62.50;;;;;8.96;83.89;101706.00;5030430;28;45656;-83
2022/11/13 03:50:23;;;;;;;;;85.67;71.00;;;;;8.77;83.65;101671.72;5030605;28;65227;-83
2022/11/13 03:52:48;;;;;;;;;83.00;65.33;;;;;8.95;83.61;101703.31;5030408;28;55785;-84
2022/11/13 03:55:14;;;;;;;;;85.33;69.67;;;;;8.80;83.60;101685.00;5028785;28;56976;-82
2022/11/13 03:57:39;;;;;;;;;86.00;72.75;;;;;8.92;83.39;101708.41;5031369;28;45657;-83
2022/11/13 04:00:05;;;;;;;;;83.67;68.67;;;;;8.90;83.55;101705.66;5029832;28;71399;-83
2022/11/13 04:02:30;;;;;;;;;80.25;67.25;;;;;8.76;83.58;101683.00;5030917;28;45422;-82
2022/11/13 04:04:56;;;;;;;;;84.33;69.00;;;;;8.72;83.89;101683.66;5028759;28;65378;-83
2022/11/13 04:07:21;;;;;;;;;82.00;62.33;;;;;8.72;83.79;101674.09;5031368;28;45410;-83
2022/11/13 04:09:46;;;;;;;;;81.33;65.67;;;;;8.74;84.31;101675.06;5044436;28;56099;-83
2022/11/13 04:12:11;;;;;;;;;74.67;61.00;;;;;8.77;83.92;101672.63;5050064;28;64734;-83
2022/11/13 04:14:37;;;;;;;;;80.67;63.00;;;;;8.90;84.02;101694.28;5050999;28;51363;-84
2022/11/13 04:17:02;;;;;;;;;75.00;59.33;;;;;8.92;84.05;101692.66;5049483;28;62839;-83
2022/11/13 04:19:27;;;;;;;;;77.33;61.00;;;;;8.78;84.10;101669.19;5051012;28;66084;-83
2022/11/13 04:21:52;;;;;;;;;74.00;60.67;;;;;8.96;84.14;101698.13;5053689;28;64001;-83
2022/11/13 04:24:18;;;;;;;;;74.33;59.33;;;;;8.99;83.96;101690.44;5053625;28;58002;-83
2022/11/13 04:26:43;;;;;;;;;74.67;60.00;;;;;9.03;84.27;101689.81;5053748;28;62112;-84
2022/11/13 04:29:08;;;;;;;;;76.00;60.67;;;;;9.08;84.07;101686.56;5053465;28;56905;-83
2022/11/13 04:31:33;;;;;;;;;75.33;60.67;;;;;9.11;84.15;101689.31;5053438;28;54360;-83
2022/11/13 04:33:59;;;;;;;;;74.33;58.00;;;;;9.01;84.13;101677.41;5053764;28;45797;-83
2022/11/13 04:36:24;;;;;;;;;76.75;60.75;;;;;9.12;83.77;101694.69;5054721;28;45385;-83
2022/11/13 04:38:50;;;;;;;;;76.67;60.67;;;;;9.18;83.93;101695.00;5053371;28;46317;-81
2022/11/13 04:43:59;;;;;;;;;68.50;56.75;;;;;9.12;84.00;101675.41;5053867;28;45920;-84
2022/11/13 04:46:24;;;;;;;;;77.67;60.00;;;;;9.10;84.02;101659.56;5053382;28;54701;-80
2022/11/13 04:48:50;;;;;;;;;80.33;64.00;;;;;9.14;83.98;101663.28;5034963;28;64915;-84
2022/11/13 04:51:15;;;;;;;;;78.33;61.33;;;;;9.19;83.61;101674.94;5035297;28;56078;-81
2022/11/13 04:53:40;;;;;;;;;76.00;62.00;;;;;9.29;83.58;101699.13;5052846;28;64176;-80
2022/11/13 04:56:05;;;;;;;;;79.67;63.00;;;;;9.20;83.93;101672.38;5053245;28;65765;-81
2022/11/13 04:58:31;;;;;;;;;80.33;63.00;;;;;9.32;83.83;101694.88;5050199;28;46299;-79
2022/11/13 05:00:56;;;;;;;;;79.00;62.33;;;;;9.30;83.75;101694.78;5049911;28;45840;-80
2022/11/13 05:03:21;;;;;;;;;79.33;62.00;;;;;9.28;83.80;101692.06;5053306;28;57677;-80
2022/11/13 05:05:47;;;;;;;;;82.33;65.00;;;;;9.35;83.89;101698.53;5053814;28;45353;-81
2022/11/13 05:08:12;;;;;;;;;82.00;65.00;;;;;9.36;83.84;101686.31;5052456;28;62832;-81
2022/11/13 05:10:37;;;;;;;;;75.00;61.50;;;;;9.37;83.61;101685.53;5053726;28;45523;-81
2022/11/13 05:13:03;;;;;;;;;76.25;61.25;;;;;9.36;83.67;101688.94;5052731;28;46014;-80
2022/11/13 05:15:28;;;;;;;;;77.25;61.50;;;;;9.29;83.54;101665.00;5053847;28;45495;-81
2022/11/13 05:17:54;;;;;;;;;78.00;62.33;;;;;9.19;83.75;101657.47;5039714;28;53190;-81
2022/11/13 05:20:19;;;;;;;;;77.75;61.75;;;;;9.29;83.66;101674.59;5033586;28;45544;-81
2022/11/13 05:22:44;;;;;;;;;79.75;63.00;;;;;9.24;83.50;101676.97;5032972;28;47346;-82
2022/11/13 05:25:10;;;;;;;;;73.33;58.00;;;;;9.07;83.49;101656.81;5032644;28;61273;-83
2022/11/13 05:27:35;;;;;;;;;76.33;62.67;;;;;9.23;83.76;101679.53;5032688;28;55225;-80
2022/11/13 05:30:00;;;;;;;;;77.00;62.00;;;;;9.11;83.66;101664.00;5032790;28;51449;-81
2022/11/13 05:32:26;;;;;;;;;79.33;62.67;;;;;9.10;83.23;101658.69;5033177;28;45538;-81
2022/11/13 05:34:51;;;;;;;;;75.00;60.67;;;;;9.10;83.18;101666.53;5032105;28;62947;-82
2022/11/13 05:37:16;;;;;;;;;74.33;58.67;;;;;9.03;83.36;101665.31;5032069;28;67062;-82
2022/11/13 05:39:41;;;;;;;;;74.25;59.50;;;;;9.01;83.43;101672.19;5033076;28;45393;-82
2022/11/13 05:42:07;;;;;;;;;78.00;60.33;;;;;8.87;83.30;101641.69;5032926;28;45960;-83
2022/11/13 05:44:32;;;;;;;;;73.25;57.75;;;;;8.79;83.80;101636.91;5033301;28;45406;-83
2022/11/13 05:46:57;;;;;;;;;72.33;57.67;;;;;8.90;83.68;101654.94;5032733;28;45603;-84
2022/11/13 05:49:23;;;;;;;;;73.67;58.67;;;;;8.90;83.70;101668.97;5032198;28;70535;-83
2022/11/13 05:51:48;;;;;;;;;70.00;57.33;;;;;8.88;83.97;101660.13;5033049;28;45403;-84
2022/11/13 05:54:13;;;;;;;;;72.33;58.67;;;;;8.70;83.83;101620.66;5043406;28;45687;-83
2022/11/13 05:56:39;;;;;;;;;69.67;57.00;;;;;8.75;84.10;101624.44;5052224;28;65516;-83
2022/11/13 05:59:04;;;;;;;;;73.50;59.25;;;;;8.85;83.92;101640.69;5052450;28;45440;-83
2022/11/13 06:01:33;;;;;;;;;73.75;60.75;;;;;8.85;83.78;101641.59;5052588;28;45796;-80
2022/11/13 06:03:59;;;;;;;;;73.25;58.25;;;;;8.83;83.61;101626.59;5037154;28;45485;-81
2022/11/13 06:06:26;;;;;;;;;73.75;58.25;;;;;8.77;83.37;101621.94;5033036;28;46638;-80
2022/11/13 06:08:53;;;;;;;;;68.75;56.00;;;;;8.79;83.62;101615.94;5038677;28;45758;-82
2022/11/13 06:11:22;;;;;;;;;74.50;60.75;;;;;8.67;83.42;101590.75;5052855;28;45330;-83
2022/11/13 06:13:48;;;;;;;;;73.75;59.00;;;;;8.77;83.28;101619.31;5034259;28;45530;-84
2022/11/13 06:16:34;;;;;;;;;69.75;56.25;;;;;8.64;83.25;101598.47;5033863;28;48368;-84
2022/11/13 06:19:02;;;;;;;;;73.25;58.50;;;;;8.73;83.40;101610.38;5052182;28;45544;-83
2022/11/13 06:21:30;;;;;;;;;71.25;56.75;;;;;8.73;83.61;101606.84;5033580;28;45493;-82
2022/11/13 06:24:00;;;;;;;;;72.25;58.00;;;;;8.73;83.36;101607.75;5032028;28;45280;-82
2022/11/13 06:26:30;;;;;;;;;72.25;57.00;;;;;8.33;83.30;101536.47;5032675;28;45479;-84
2022/11/13 06:28:56;;;;;;;;;70.75;56.00;;;;;8.73;83.36;101599.88;5031679;28;45756;-81
2022/11/13 06:31:25;;;;;;;;;71.75;56.50;;;;;8.70;83.34;101597.09;5041750;28;45711;-82
2022/11/13 06:33:50;;;;;;;;;66.00;53.75;;;;;8.75;83.52;101602.56;5051264;28;45784;-84
2022/11/13 06:36:21;;;;;;;;;75.00;58.00;;;;;8.76;83.49;101607.00;5050884;28;53941;-83
2022/11/13 06:38:47;;;;;;;;;69.25;53.50;;;;;8.69;83.50;101600.53;5035311;28;45251;-84
2022/11/13 06:41:15;;;;;;;;;71.50;57.00;;;;;8.70;83.47;101602.31;5041611;28;45824;-80
2022/11/13 06:43:41;;;;;;;;;70.75;55.00;;;;;8.58;83.32;101585.94;5033238;28;45461;-83
2022/11/13 06:46:21;;;;;;;;;67.00;53.50;;;;;8.71;83.24;101611.09;5032134;28;46354;-81
2022/11/13 06:48:48;;;;;;;;;67.50;54.75;;;;;8.69;83.36;101607.50;5051629;28;45425;-83
2022/11/13 06:51:16;;;;;;;;;68.25;55.50;;;;;8.67;83.21;101611.72;5051244;28;45746;-83
2022/11/13 06:53:41;;;;;;;;;69.25;57.25;;;;;8.41;83.49;101570.97;5033375;28;45779;-82
2022/11/13 06:56:07;;;;;;;;;72.00;57.67;;;;;8.64;83.21;101612.47;5048908;28;45485;-80
2022/11/13 06:58:33;;;;;;;;;66.75;54.75;;;;;8.50;83.24;101589.81;5030701;28;45709;-82
2022/11/13 07:01:09;;;;;;;;;64.00;50.75;;;;;8.53;83.18;101582.16;5041229;28;45272;-83
2022/11/13 07:03:35;;;;;;;;;68.50;55.50;;;;;8.62;83.30;101608.88;5034552;28;45528;-81
2022/11/13 07:06:06;;;;;;;;;67.50;55.50;;;;;8.57;83.31;101594.63;5050790;28;45697;-80
2022/11/13 07:08:31;;;;;;;;;64.75;53.50;;;;;8.61;83.31;101603.53;5051568;28;45483;-80
2022/11/13 07:10:57;;;;;;;;;68.25;54.75;;;;;8.61;83.36;101601.81;5050943;28;45916;-82
2022/11/13 07:13:24;;;;;;;;;68.25;55.00;;;;;8.49;83.49;101580.16;5051179;28;45537;-80
2022/11/13 07:15:49;;;;;;;;;67.00;54.50;;;;;8.64;83.48;101611.56;5050531;28;46433;-81
2022/11/13 07:18:15;;;;;;;;;66.67;53.33;;;;;8.62;83.36;101601.00;5036873;28;45352;-82
2022/11/13 07:20:40;;;;;;;;;69.25;55.75;;;;;8.56;83.31;101594.50;5034751;28;45379;-81
2022/11/13 07:23:05;;;;;;;;;68.75;55.50;;;;;8.57;83.69;101594.63;5050584;28;45877;-83
2022/11/13 07:25:31;;;;;;;;;67.00;54.33;;;;;8.24;84.25;101536.84;5051278;28;48613;-81
2022/11/13 07:27:56;;;;;;;;;70.50;56.50;;;;;8.69;84.28;101607.50;5045091;28;45482;-83
2022/11/13 07:30:22;;;;;;;;;71.25;56.00;;;;;8.38;84.40;101552.47;5029174;28;45667;-80
2022/11/13 07:32:48;;;;;;;;;63.00;52.75;;;;;8.21;84.54;101520.94;5042511;28;45773;-81
2022/11/13 07:35:15;;;;;;;;;61.33;52.00;;;;;8.53;84.50;101580.44;5030733;28;46128;-81
2022/11/13 07:37:41;;;;;;;;;66.00;53.00;;;;;8.77;84.14;101604.47;5046283;28;45452;-82
2022/11/13 07:40:06;;;;;;;;;65.75;53.25;;;;;8.72;84.13;101584.09;5030715;28;45468;-81
2022/11/13 07:42:32;;;;;;;;;68.75;56.00;;;;;8.77;84.10;101588.75;5049374;28;45493;-80
2022/11/13 07:44:57;;;;;;;;;68.33;54.00;;;;;8.71;84.21;101577.91;5050019;28;55711;-83
2022/11/13 07:47:23;;;;;;;;;67.67;55.33;;;;;8.88;84.13;101597.22;5047012;28;61345;-81
2022/11/13 07:49:48;;;;;;;;;68.00;53.00;;;;;8.89;83.88;101591.13;5030783;28;45484;-81
2022/11/13 07:52:14;;;;;;;;;68.25;55.25;;;;;8.78;84.07;101568.69;5045566;28;45702;-83
2022/11/13 07:54:39;;;;;;;;;66.25;53.75;;;;;8.76;83.99;101555.47;5051057;28;45881;-83
2022/11/13 07:57:04;;;;;;;;;72.33;54.67;;;;;8.83;84.03;101561.06;5053382;28;59782;-83
2022/11/13 07:59:30;;;;;;;;;63.00;52.00;;;;;9.03;84.03;101584.03;5052303;28;45437;-83
2022/11/13 08:01:55;;;;;;;;;69.33;55.67;;;;;9.09;84.25;101581.72;5034712;28;57831;-84
2022/11/13 08:04:20;;;;;;;;;67.67;55.33;;;;;9.12;84.18;101584.53;5037174;28;46132;-81
2022/11/13 08:06:45;;;;;;;;;68.00;55.33;;;;;9.00;84.30;101544.53;5043620;28;45559;-83
2022/11/13 08:09:11;;;;;;;;;65.67;53.67;;;;;9.06;84.54;101552.72;5053778;28;45442;-84
2022/11/13 08:11:36;;;;;;;;;66.00;53.00;;;;;9.05;84.24;101554.44;5053476;28;60550;-81
2022/11/13 08:14:01;;;;;;;;;65.00;52.50;;;;;9.27;84.41;101587.97;5053070;28;46512;-81
2022/11/13 08:16:27;;;;;;;;;66.00;55.00;;;;;9.30;84.42;101577.63;5054193;28;45912;-82
2022/11/13 08:18:52;;;;;;;;;65.50;53.25;;;;;9.35;84.45;101576.97;5052420;28;45738;-83
2022/11/13 08:21:19;;;;;;;;;64.67;52.00;;;;;9.38;84.87;101571.91;5053979;28;45909;-84
2022/11/13 08:23:45;;;;;;;;;65.50;54.25;;;;;9.39;84.58;101574.59;5053668;28;45942;-84
2022/11/13 08:26:10;;;;;;;;;64.00;52.75;;;;;9.39;84.71;101564.09;5052951;28;45799;-83
2022/11/13 08:28:36;;;;;;;;;59.33;48.33;;;;;9.47;84.94;101569.75;5051888;28;55053;-85
2022/11/13 08:31:02;;;;;;;;;52.00;43.33;;;;;9.52;85.35;101569.16;5034043;28;45594;-84
2022/11/13 08:33:28;;;;;;;;;56.25;45.75;;;;;9.59;85.54;101575.63;5053409;28;45441;-85
2022/11/13 08:35:58;;;;;;;;;55.25;44.75;;;;;9.59;85.57;101559.88;5053480;28;45931;-81
2022/11/13 08:38:24;;;;;;;;;49.75;42.50;;;;;9.71;85.81;101568.41;5054154;28;45601;-81
2022/11/13 08:40:50;;;;;;;;;45.75;40.50;;;;;9.70;85.94;101542.94;5053625;28;45580;-81
2022/11/13 08:43:16;;;;;;;;;49.00;39.50;;;;;9.87;86.18;101561.28;5053384;28;46281;-81
2022/11/13 08:45:45;;;;;;;;;42.00;37.75;;;;;9.83;85.89;101545.38;5052814;28;46093;-81
2022/11/13 08:48:11;;;;;;;;;46.75;38.75;;;;;9.99;86.22;101551.38;5052258;28;45458;-81
2022/11/13 08:50:37;;;;;;;;;54.25;43.25;;;;;10.04;86.06;101552.53;5033789;28;45544;-81
2022/11/13 08:53:02;;;;;;;;;40.50;35.50;;;;;10.01;86.25;101531.38;5049893;28;47117;-84
2022/11/13 08:55:28;;;;;;;;;50.00;40.25;;;;;10.15;86.10;101538.22;5049519;28;45341;-80
2022/11/13 08:57:57;;;;;;;;;36.25;34.25;;;;;10.17;86.10;101533.03;5052518;28;45537;-81
2022/11/13 09:00:22;;;;;;;;;38.25;35.00;;;;;10.26;86.32;101525.63;5050498;28;45660;-81
2022/11/13 09:02:53;;;;;;;;;35.33;32.00;;;;;10.15;86.29;101490.94;5032257;28;52610;-81
2022/11/13 09:05:18;;;;;;;;;40.25;35.50;;;;;10.23;86.15;101501.78;5049672;28;45430;-81
2022/11/13 09:07:44;;;;;;;;;37.00;34.00;;;;;10.41;86.40;101515.84;5050347;28;63600;-80
2022/11/13 09:10:09;;;;;;;;;30.00;29.00;;;;;10.33;86.48;101493.56;5052375;28;56344;-81
2022/11/13 09:12:34;;;;;;;;;31.25;29.00;;;;;10.43;86.17;101501.03;5053006;28;46095;-82
2022/11/13 09:14:59;;;;;;;;;29.00;29.00;;;;;10.62;86.26;101523.84;5051212;28;53528;-83
2022/11/13 09:17:25;;;;;;;;;29.00;25.67;;;;;10.67;85.82;101524.06;5034986;28;65758;-82
2022/11/13 09:19:50;;;;;;;;;30.33;29.00;;;;;10.72;85.81;101526.06;5034685;28;63997;-81
2022/11/13 09:22:15;;;;;;;;;30.00;26.67;;;;;10.64;86.25;101498.53;5051116;28;70240;-81
2022/11/13 09:24:40;;;;;;;;;36.67;31.33;;;;;10.65;85.80;101488.91;5052726;28;45455;-80
2022/11/13 09:27:06;;;;;;;;;31.33;30.33;;;;;10.84;85.80;101509.97;5052130;28;53504;-81
2022/11/13 09:29:31;;;;;;;;;37.00;34.67;;;;;10.92;86.14;101516.47;5050294;28;61207;-81
2022/11/13 09:31:56;;;;;;;;;39.00;34.33;;;;;10.97;86.19;101512.31;5031368;28;60366;-81
2022/11/13 09:34:24;;;;;;;;;33.33;30.67;;;;;11.02;85.67;101513.41;5032030;28;51178;-80
2022/11/13 09:36:50;;;;;;;;;39.50;34.00;;;;;10.94;85.93;101498.13;5032460;28;45525;-81
2022/11/13 09:39:15;;;;;;;;;38.00;32.00;;;;;11.13;85.73;101518.25;5031861;28;64238;-81
2022/11/13 09:41:48;;;;;;;;;41.25;34.75;;;;;11.12;86.06;101512.09;5014516;28;47577;-81
2022/11/13 09:45:06;;;;;;;;;36.50;33.50;;;;;11.23;85.96;101508.22;5029639;28;45360;-81
2022/11/13 09:47:45;;;;;;;;;35.50;33.00;;;;;11.18;85.50;101491.34;5042582;28;45505;-80
2022/11/13 09:50:18;;;;;;;;;31.00;30.25;;;;;11.29;85.37;101505.84;5033540;28;45447;-81
2022/11/13 09:52:44;;;;;;;;;37.50;33.25;;;;;11.23;85.56;101481.91;5033162;28;45540;-82
2022/11/13 09:55:17;;;;;;;;;37.00;35.00;;;;;11.41;85.27;101497.59;5031246;28;45442;-84
2022/11/13 09:57:54;;;;;;;;;35.75;34.00;;;;;11.45;85.04;101494.25;5039209;28;45578;-83
2022/11/13 10:00:20;;;;;;;;;36.00;34.00;;;;;11.50;85.02;101505.88;5032111;28;45597;-84
2022/11/13 10:03:14;;;;;;;;;32.00;30.00;;;;;11.56;85.58;101494.72;5040117;28;45996;-82
2022/11/13 10:06:07;;;;;;;;;36.25;34.25;;;;;11.53;85.07;101482.34;5070145;28;45921;-84
2022/11/13 10:08:51;;;;;;;;;41.25;34.50;;;;;11.69;85.21;101486.50;5057977;28;45409;-84
2022/11/13 10:11:38;;;;;;;;;40.00;35.50;;;;;11.74;84.82;101482.31;5052539;28;45311;-82
2022/11/13 10:14:19;;;;;;;;;33.00;31.75;;;;;11.79;84.67;101478.16;5034092;28;46035;-84
2022/11/13 10:17:08;;;;;;;;;41.75;35.75;;;;;11.85;85.03;101481.06;5051897;28;45931;-81
2022/11/13 10:19:48;;;;;;;;;33.00;32.00;;;;;11.91;84.58;101479.50;5034172;28;45281;-84
2022/11/13 10:22:19;;;;;;;;;35.00;32.75;;;;;11.85;84.80;101459.97;5052799;28;45853;-85
2022/11/13 10:24:50;;;;;;;;;36.00;32.50;;;;;11.82;84.57;101444.09;5052104;28;45423;-82
2022/11/13 10:27:15;;;;;;;;;33.75;33.25;;;;;12.06;84.75;101475.75;5031680;28;45886;-85
2022/11/13 10:29:41;;;;;;;;;36.00;34.50;;;;;12.00;84.88;101453.53;5039072;28;64760;-84
2022/11/13 10:32:25;;;;;;;;;35.50;34.00;;;;;12.04;84.62;101444.94;5043787;28;45525;-81
2022/11/13 10:35:08;;;;;;;;;36.75;34.00;;;;;12.12;84.27;101441.75;5030007;28;46498;-80
2022/11/13 10:37:45;;;;;;;;;32.25;29.00;;;;;12.27;84.35;101459.03;5032462;28;45760;-83
2022/11/13 10:40:22;;;;;;;;;37.25;34.75;;;;;12.32;84.42;101457.47;5031638;28;45532;-83
2022/11/13 10:42:48;;;;;;;;;32.50;30.75;;;;;12.24;83.92;101422.88;5031721;28;45450;-83
2022/11/13 10:45:16;;;;;;;;;36.50;33.50;;;;;12.35;83.99;101447.00;5034056;28;45791;-81
2022/11/13 10:47:49;;;;;;;;;33.75;33.25;;;;;12.46;84.15;101450.97;5034264;28;45982;-83
2022/11/13 10:50:21;;;;;;;;;45.50;38.00;;;;;12.47;84.35;101443.97;5031929;28;45408;-84
2022/11/13 10:52:49;;;;;;;;;37.00;34.75;;;;;12.55;84.02;101439.88;5031500;28;45502;-85
2022/11/13 10:55:32;;;;;;;;;43.25;36.75;;;;;12.63;83.81;101456.88;5031797;28;45438;-83
2022/11/13 10:58:01;;;;;;;;;44.25;38.00;;;;;12.70;84.08;101443.06;5031770;28;45395;-84
2022/11/13 11:00:31;;;;;;;;;43.75;38.00;;;;;12.57;83.81;101401.28;5035880;28;45744;-83
2022/11/13 11:02:57;;;;;;;;;52.25;43.00;;;;;12.80;83.34;101424.09;5030420;28;45485;-82
2022/11/13 11:05:24;;;;;;;;;41.25;36.00;;;;;12.76;83.10;101405.47;5031782;28;47051;-85
2022/11/13 11:07:51;;;;;;;;;45.50;39.00;;;;;12.60;83.24;101373.28;5030711;28;45592;-84
2022/11/13 11:10:21;;;;;;;;;49.50;40.75;;;;;12.90;83.31;101415.66;5032593;28;45389;-84
2022/11/13 11:12:52;;;;;;;;;50.75;41.00;;;;;12.93;82.77;101400.81;5021292;28;45555;-82
2022/11/13 11:15:43;;;;;;;;;53.50;42.00;;;;;12.99;83.13;101409.84;5030102;28;45780;-83
2022/11/13 11:18:25;;;;;;;;;48.00;40.25;;;;;13.03;83.09;101400.28;5034764;28;45316;-83
2022/11/13 11:20:55;;;;;;;;;45.00;37.75;;;;;13.01;82.94;101378.25;5030245;28;45480;-82